createdAt,value
2018-04-19T00:01:06.876Z,15.64
2018-04-19T00:03:34.498Z,15.56
2018-04-19T00:06:01.430Z,15.57
2018-04-19T00:08:28.289Z,15.54
2018-04-19T00:10:55.151Z,15.52
2018-04-19T00:13:22.104Z,15.44
2018-04-19T00:15:49.041Z,15.42
2018-04-19T00:18:16.680Z,15.41
2018-04-19T00:20:43.604Z,15.47
2018-04-19T00:23:10.529Z,15.48
2018-04-19T00:25:38.192Z,15.49
2018-04-19T00:28:05.865Z,15.48
2018-04-19T00:30:33.602Z,15.40
2018-04-19T00:33:00.517Z,15.17
2018-04-19T00:35:27.368Z,14.91
2018-04-19T00:37:54.368Z,14.80
2018-04-19T00:40:22.370Z,14.82
2018-04-19T00:42:49.508Z,14.81
2018-04-19T00:45:16.425Z,14.77
2018-04-19T00:47:44.025Z,14.78
2018-04-19T00:50:10.939Z,14.74
2018-04-19T00:52:56.937Z,14.51
2018-04-19T00:55:24.748Z,14.54
2018-04-19T00:57:51.612Z,14.56
2018-04-19T01:00:18.488Z,14.56
2018-04-19T01:02:46.206Z,14.47
2018-04-19T01:05:13.142Z,14.37
2018-04-19T01:07:40.019Z,14.38
2018-04-19T01:10:06.951Z,14.28
2018-04-19T01:12:34.037Z,14.29
2018-04-19T01:15:01.652Z,14.30
2018-04-19T01:17:28.526Z,14.29
2018-04-19T01:19:55.518Z,14.30
2018-04-19T01:22:22.380Z,14.22
2018-04-19T01:24:49.284Z,14.13
2018-04-19T01:27:16.940Z,14.20
2018-04-19T01:29:44.693Z,14.19
2018-04-19T01:32:11.613Z,14.19
2018-04-19T01:34:38.638Z,14.21
2018-04-19T01:37:05.521Z,14.17
2018-04-19T01:39:32.388Z,14.05
2018-04-19T01:42:00.037Z,14.09
2018-04-19T01:44:27.009Z,14.08
2018-04-19T01:46:53.991Z,14.07
2018-04-19T01:49:20.912Z,14.06
2018-04-19T01:51:47.846Z,14.08
2018-04-19T01:54:15.509Z,14.11
2018-04-19T01:56:43.181Z,14.14
2018-04-19T01:59:10.857Z,14.16
2018-04-19T02:01:37.765Z,14.18
2018-04-19T02:04:04.639Z,14.18
2018-04-19T02:06:31.583Z,14.14
2018-04-19T02:08:58.443Z,14.16
2018-04-19T02:11:25.348Z,14.16
2018-04-19T02:13:53.052Z,14.11
2018-04-19T02:16:19.973Z,14.11
2018-04-19T02:18:47.586Z,14.09
2018-04-19T02:21:14.597Z,14.08
2018-04-19T02:23:41.455Z,14.06
2018-04-19T02:26:08.412Z,13.95
2018-04-19T02:28:35.327Z,13.96
2018-04-19T02:31:02.192Z,13.97
2018-04-19T02:33:29.140Z,13.93
2018-04-19T02:35:56.258Z,13.93
2018-04-19T02:38:23.869Z,13.95
2018-04-19T02:40:50.792Z,13.95
2018-04-19T02:43:17.719Z,13.86
2018-04-19T02:45:46.266Z,13.84
2018-04-19T02:48:13.129Z,13.86
2018-04-19T02:50:40.896Z,13.82
2018-04-19T02:53:07.756Z,13.78
2018-04-19T02:55:35.408Z,13.71
2018-04-19T02:58:02.433Z,13.61
2018-04-19T03:00:29.424Z,13.63
2018-04-19T03:02:56.394Z,13.66
2018-04-19T03:05:23.341Z,13.66
2018-04-19T03:07:50.209Z,13.70
2018-04-19T03:10:17.133Z,13.73
2018-04-19T03:12:44.058Z,13.67
2018-04-19T03:15:11.187Z,13.73
2018-04-19T03:17:38.854Z,13.69
2018-04-19T03:20:05.775Z,13.64
2018-04-19T03:22:32.705Z,13.57
2018-04-19T03:24:59.630Z,13.50
2018-04-19T03:27:26.713Z,13.45
2018-04-19T03:29:53.566Z,13.41
2018-04-19T03:32:20.492Z,13.38
2018-04-19T03:34:47.422Z,13.41
2018-04-19T03:37:14.328Z,13.42
2018-04-19T03:39:41.989Z,13.42
2018-04-19T03:42:09.653Z,13.44
2018-04-19T03:44:37.320Z,13.40
2018-04-19T03:47:04.247Z,13.38
2018-04-19T03:49:31.165Z,13.40
2018-04-19T03:51:58.060Z,13.36
2018-04-19T03:54:25.708Z,13.32
2018-04-19T03:56:52.603Z,13.28
2018-04-19T03:59:19.508Z,13.29
2018-04-19T04:01:47.116Z,13.22
2018-04-19T04:04:14.080Z,13.22
2018-04-19T04:06:41.004Z,13.10
2018-04-19T04:09:07.928Z,13.11
2018-04-19T04:11:34.792Z,13.07
2018-04-19T04:14:01.658Z,13.00
2018-04-19T04:16:46.950Z,12.87
2018-04-19T04:19:32.098Z,12.92
2018-04-19T04:22:17.297Z,12.92
2018-04-19T04:24:44.178Z,12.89
2018-04-19T04:27:11.775Z,12.87
2018-04-19T04:29:40.637Z,12.86
2018-04-19T04:32:08.232Z,12.83
2018-04-19T04:34:35.221Z,12.84
2018-04-19T04:37:02.105Z,12.62
2018-04-19T04:39:28.983Z,12.54
2018-04-19T04:41:55.896Z,12.57
2018-04-19T04:44:22.785Z,12.59
2018-04-19T04:46:49.702Z,12.64
2018-04-19T04:49:16.612Z,12.63
2018-04-19T04:51:44.337Z,12.59
2018-04-19T04:54:11.207Z,12.64
2018-04-19T04:56:38.947Z,12.52
2018-04-19T04:59:05.820Z,12.56
2018-04-19T05:01:33.488Z,12.61
2018-04-19T05:04:01.203Z,12.50
2018-04-19T05:06:28.188Z,12.60
2018-04-19T05:08:55.089Z,12.60
2018-04-19T05:11:22.153Z,12.59
2018-04-19T05:13:49.942Z,12.70
2018-04-19T05:16:16.813Z,12.59
2018-04-19T05:18:44.520Z,12.69
2018-04-19T05:21:11.376Z,12.75
2018-04-19T05:23:38.309Z,12.97
2018-04-19T05:26:05.183Z,13.11
2018-04-19T05:28:32.092Z,13.21
2018-04-19T05:30:58.953Z,13.29
2018-04-19T05:33:25.822Z,13.34
2018-04-19T05:35:52.749Z,13.49
2018-04-19T05:38:20.424Z,13.30
2018-04-19T05:40:47.332Z,13.40
2018-04-19T05:43:14.208Z,13.74
2018-04-19T05:45:41.120Z,13.95
2018-04-19T05:48:08.089Z,14.38
2018-04-19T05:50:35.028Z,14.69
2018-04-19T05:53:01.969Z,15.03
2018-04-19T05:55:28.839Z,15.11
2018-04-19T05:57:55.767Z,14.71
2018-04-19T06:00:22.642Z,15.09
2018-04-19T06:02:49.574Z,15.22
2018-04-19T06:05:16.583Z,15.45
2018-04-19T06:07:43.460Z,15.59
2018-04-19T06:10:10.383Z,15.84
2018-04-19T06:12:37.244Z,16.01
2018-04-19T06:15:04.137Z,16.20
2018-04-19T06:17:31.818Z,16.25
2018-04-19T06:19:58.686Z,16.18
2018-04-19T06:22:25.645Z,16.17
2018-04-19T06:24:52.575Z,16.56
2018-04-19T06:27:19.499Z,16.82
2018-04-19T06:29:47.147Z,16.95
2018-04-19T06:32:14.805Z,16.86
2018-04-19T06:34:41.683Z,16.87
2018-04-19T06:37:08.634Z,16.75
2018-04-19T06:39:35.557Z,16.84
2018-04-19T06:42:03.223Z,17.04
2018-04-19T06:44:30.913Z,16.78
2018-04-19T06:46:57.930Z,16.96
2018-04-19T06:49:25.575Z,17.25
2018-04-19T06:51:52.492Z,17.48
2018-04-19T06:54:19.414Z,17.84
2018-04-19T06:56:46.267Z,17.54
2018-04-19T06:59:13.204Z,17.96
2018-04-19T07:01:40.382Z,18.10
2018-04-19T07:04:07.317Z,17.58
2018-04-19T07:06:34.977Z,17.13
2018-04-19T07:09:01.871Z,17.69
2018-04-19T07:11:29.584Z,17.45
2018-04-19T07:13:56.462Z,17.85
2018-04-19T07:16:23.488Z,18.23
2018-04-19T07:18:50.356Z,18.83
2018-04-19T07:21:17.227Z,18.26
2018-04-19T07:23:44.880Z,18.67
2018-04-19T07:26:11.757Z,18.99
2018-04-19T07:28:38.731Z,18.71
2018-04-19T07:31:05.639Z,19.20
2018-04-19T07:33:32.711Z,18.80
2018-04-19T07:35:59.585Z,18.96
2018-04-19T07:38:26.586Z,19.77
2018-04-19T07:40:53.514Z,20.00
2018-04-19T07:43:21.168Z,20.27
2018-04-19T07:45:48.086Z,20.10
2018-04-19T07:48:15.300Z,20.29
2018-04-19T07:50:42.206Z,19.96
2018-04-19T07:53:09.061Z,20.41
2018-04-19T07:55:36.021Z,20.46
2018-04-19T07:58:03.743Z,20.97
2018-04-19T08:00:30.614Z,21.33
2018-04-19T08:02:57.607Z,21.26
2018-04-19T08:05:24.543Z,21.45
2018-04-19T08:07:51.455Z,21.63
2018-04-19T08:10:18.398Z,20.95
2018-04-19T08:12:45.562Z,21.22
2018-04-19T08:15:13.166Z,21.49
2018-04-19T08:17:40.088Z,21.36
2018-04-19T08:20:07.084Z,21.54
2018-04-19T08:22:34.156Z,22.09
2018-04-19T08:25:01.261Z,21.78
2018-04-19T08:27:28.169Z,21.67
2018-04-19T08:29:55.819Z,22.20
2018-04-19T08:32:22.690Z,22.78
2018-04-19T08:34:49.685Z,22.77
2018-04-19T08:37:16.595Z,22.28
2018-04-19T08:39:43.537Z,22.15
2018-04-19T08:42:10.600Z,22.95
2018-04-19T08:44:37.477Z,23.00
2018-04-19T08:47:04.417Z,23.77
2018-04-19T08:49:31.383Z,23.23
2018-04-19T08:51:58.425Z,24.06
2018-04-19T08:54:25.298Z,23.76
2018-04-19T08:56:52.951Z,23.73
2018-04-19T08:59:19.848Z,23.52
2018-04-19T09:01:46.717Z,24.22
2018-04-19T09:04:13.586Z,24.20
2018-04-19T09:06:41.254Z,24.24
2018-04-19T09:09:08.922Z,24.26
2018-04-19T09:11:36.603Z,24.58
2018-04-19T09:14:03.544Z,25.26
2018-04-19T09:16:30.464Z,25.24
2018-04-19T09:18:57.372Z,25.33
2018-04-19T09:21:24.298Z,24.95
2018-04-19T09:23:51.234Z,24.64
2018-04-19T09:26:18.103Z,24.95
2018-04-19T09:28:45.060Z,24.74
2018-04-19T09:31:11.939Z,24.59
2018-04-19T09:33:38.988Z,25.14
2018-04-19T09:36:06.648Z,24.64
2018-04-19T09:38:33.526Z,24.85
2018-04-19T09:41:00.499Z,24.92
2018-04-19T09:43:27.408Z,25.02
2018-04-19T09:45:55.009Z,25.07
2018-04-19T09:48:22.087Z,24.87
2018-04-19T09:50:49.005Z,24.90
2018-04-19T09:53:15.966Z,24.77
2018-04-19T09:55:42.875Z,25.15
2018-04-19T09:58:10.070Z,24.94
2018-04-19T10:00:43.143Z,25.17
2018-04-19T10:03:16.640Z,24.96
2018-04-19T10:05:46.577Z,24.89
2018-04-19T10:08:13.580Z,25.30
2018-04-19T10:10:40.516Z,25.25
2018-04-19T10:13:08.110Z,25.19
2018-04-19T10:15:34.988Z,25.03
2018-04-19T10:18:02.255Z,24.77
2018-04-19T10:20:29.131Z,25.12
2018-04-19T10:22:55.993Z,25.13
2018-04-19T10:25:22.989Z,25.12
2018-04-19T10:27:49.852Z,25.04
2018-04-19T10:30:17.581Z,24.96
2018-04-19T10:32:44.496Z,25.14
2018-04-19T10:35:11.485Z,25.28
2018-04-19T10:37:38.389Z,25.28
2018-04-19T10:40:05.268Z,25.63
2018-04-19T10:42:32.233Z,25.57
2018-04-19T10:44:59.381Z,25.73
2018-04-19T10:47:26.252Z,25.49
2018-04-19T10:49:53.127Z,25.46
2018-04-19T10:52:20.042Z,25.46
2018-04-19T10:54:46.917Z,25.54
2018-04-19T10:57:14.013Z,25.73
2018-04-19T10:59:40.932Z,25.59
2018-04-19T11:02:07.944Z,25.87
2018-04-19T11:04:34.813Z,25.93
2018-04-19T11:07:01.799Z,25.85
2018-04-19T11:09:28.756Z,25.75
2018-04-19T11:11:56.454Z,25.90
2018-04-19T11:14:23.401Z,26.00
2018-04-19T11:16:50.304Z,26.10
2018-04-19T11:19:17.921Z,25.89
2018-04-19T11:21:44.853Z,26.06
2018-04-19T11:24:11.737Z,26.29
2018-04-19T11:26:38.714Z,26.46
2018-04-19T11:29:06.378Z,26.37
2018-04-19T11:31:33.979Z,26.32
2018-04-19T11:34:00.950Z,26.26
2018-04-19T11:36:27.813Z,26.38
2018-04-19T11:38:54.799Z,26.60
2018-04-19T11:41:21.720Z,26.71
2018-04-19T11:43:49.372Z,26.73
2018-04-19T11:46:16.300Z,26.41
2018-04-19T11:48:43.472Z,26.76
2018-04-19T11:51:10.392Z,26.82
2018-04-19T11:53:37.260Z,26.71
2018-04-19T11:56:04.206Z,26.78
2018-04-19T11:58:31.129Z,26.74
2018-04-19T12:00:59.175Z,26.87
2018-04-19T12:03:26.062Z,26.82
2018-04-19T12:05:52.987Z,26.69
2018-04-19T12:08:19.920Z,26.76
2018-04-19T12:10:46.784Z,26.82
2018-04-19T12:13:13.760Z,27.08
2018-04-19T12:15:40.669Z,27.15
2018-04-19T12:18:07.896Z,27.09
2018-04-19T12:20:34.865Z,27.10
2018-04-19T12:23:02.661Z,27.11
2018-04-19T12:25:29.598Z,27.13
2018-04-19T12:27:56.529Z,27.37
2018-04-19T12:30:23.401Z,27.24
2018-04-19T12:32:50.409Z,27.20
2018-04-19T12:35:17.388Z,27.29
2018-04-19T12:37:44.629Z,27.39
2018-04-19T12:40:11.505Z,27.32
2018-04-19T12:42:38.403Z,27.42
2018-04-19T12:45:05.372Z,27.33
2018-04-19T12:47:32.236Z,27.48
2018-04-19T12:49:59.170Z,27.42
2018-04-19T12:52:26.048Z,27.13
2018-04-19T12:54:53.800Z,27.54
2018-04-19T12:57:21.409Z,27.62
2018-04-19T12:59:48.276Z,27.69
2018-04-19T13:02:16.169Z,27.57
2018-04-19T13:04:43.076Z,27.58
2018-04-19T13:07:09.997Z,27.34
2018-04-19T13:09:36.924Z,27.50
2018-04-19T13:12:04.562Z,27.47
2018-04-19T13:14:31.472Z,27.45
2018-04-19T13:16:58.349Z,27.46
2018-04-19T13:19:25.360Z,27.67
2018-04-19T13:21:52.351Z,27.70
2018-04-19T13:24:19.226Z,27.58
2018-04-19T13:26:47.044Z,27.43
2018-04-19T13:29:13.980Z,27.50
2018-04-19T13:31:42.043Z,27.54
2018-04-19T13:34:09.028Z,27.70
2018-04-19T13:36:35.952Z,27.75
2018-04-19T13:39:03.056Z,27.92
2018-04-19T13:41:30.095Z,27.76
2018-04-19T13:43:57.806Z,27.77
2018-04-19T13:46:24.686Z,27.63
2018-04-19T13:48:51.677Z,27.89
2018-04-19T13:51:18.664Z,28.08
2018-04-19T13:53:45.767Z,27.76
2018-04-19T13:56:12.741Z,27.79
2018-04-19T13:58:39.619Z,27.96
2018-04-19T14:01:06.576Z,27.99
2018-04-19T14:03:33.449Z,27.93
2018-04-19T14:06:00.416Z,27.85
2018-04-19T14:08:27.419Z,28.05
2018-04-19T14:10:54.464Z,27.79
2018-04-19T14:13:22.006Z,28.03
2018-04-19T14:15:48.883Z,28.25
2018-04-19T14:18:16.585Z,28.16
2018-04-19T14:20:43.449Z,28.35
2018-04-19T14:23:10.330Z,28.13
2018-04-19T14:25:38.048Z,28.16
2018-04-19T14:28:04.921Z,28.26
2018-04-19T14:30:32.147Z,28.33
2018-04-19T14:32:59.015Z,28.41
2018-04-19T14:35:25.980Z,28.51
2018-04-19T14:37:53.656Z,28.30
2018-04-19T14:40:21.272Z,28.15
2018-04-19T14:42:48.192Z,28.17
2018-04-19T14:45:15.139Z,27.99
2018-04-19T14:47:42.018Z,28.24
2018-04-19T14:50:08.944Z,28.32
2018-04-19T14:52:35.818Z,28.49
2018-04-19T14:55:02.862Z,28.51
2018-04-19T14:57:29.801Z,28.41
2018-04-19T14:59:56.678Z,28.32
2018-04-19T15:02:24.337Z,28.43
2018-04-19T15:04:51.953Z,28.10
2018-04-19T15:07:18.876Z,27.85
2018-04-19T15:09:45.792Z,27.93
2018-04-19T15:12:13.816Z,28.02
2018-04-19T15:14:46.666Z,28.11
2018-04-19T15:17:13.594Z,28.11
2018-04-19T15:19:40.509Z,28.18
2018-04-19T15:22:07.409Z,28.23
2018-04-19T15:24:34.346Z,28.30
2018-04-19T15:27:02.016Z,27.88
2018-04-19T15:29:29.091Z,28.03
2018-04-19T15:31:56.039Z,27.83
2018-04-19T15:34:23.018Z,27.91
2018-04-19T15:36:49.921Z,28.04
2018-04-19T15:39:16.847Z,28.03
2018-04-19T15:41:43.813Z,27.95
2018-04-19T15:44:10.685Z,28.00
2018-04-19T15:46:37.548Z,27.96
2018-04-19T15:49:04.529Z,27.90
2018-04-19T15:51:32.132Z,27.92
2018-04-19T15:53:58.996Z,27.93
2018-04-19T15:56:25.921Z,27.85
2018-04-19T15:58:52.841Z,27.79
2018-04-19T16:01:19.769Z,27.81
2018-04-19T16:03:47.434Z,27.80
2018-04-19T16:06:15.105Z,27.56
2018-04-19T16:08:42.087Z,27.53
2018-04-19T16:11:09.025Z,27.50
2018-04-19T16:13:35.996Z,27.48
2018-04-19T16:16:03.637Z,27.42
2018-04-19T16:18:30.560Z,27.48
2018-04-19T16:20:57.706Z,27.38
2018-04-19T16:23:24.660Z,27.36
2018-04-19T16:25:51.546Z,27.24
2018-04-19T16:28:18.506Z,27.27
2018-04-19T16:30:45.560Z,27.05
2018-04-19T16:33:12.602Z,27.05
2018-04-19T16:35:39.582Z,27.02
2018-04-19T16:38:07.291Z,26.92
2018-04-19T16:40:34.179Z,26.90
2018-04-19T16:43:01.841Z,26.86
2018-04-19T16:45:29.513Z,26.81
2018-04-19T16:47:57.119Z,26.78
2018-04-19T16:50:24.046Z,26.68
2018-04-19T16:52:50.929Z,26.55
2018-04-19T16:55:17.853Z,26.50
2018-04-19T16:57:44.828Z,26.43
2018-04-19T17:00:11.765Z,26.31
2018-04-19T17:02:38.709Z,26.26
2018-04-19T17:05:06.374Z,26.21
2018-04-19T17:07:33.329Z,26.06
2018-04-19T17:10:00.188Z,25.96
2018-04-19T17:12:27.088Z,25.92
2018-04-19T17:14:54.039Z,25.84
2018-04-19T17:17:21.000Z,25.75
2018-04-19T17:19:47.868Z,25.68
2018-04-19T17:22:14.771Z,25.62
2018-04-19T17:24:41.743Z,25.53
2018-04-19T17:27:08.616Z,25.54
2018-04-19T17:29:36.289Z,25.45
2018-04-19T17:32:03.913Z,25.42
2018-04-19T17:34:30.826Z,25.35
2018-04-19T17:36:57.775Z,25.31
2018-04-19T17:39:24.631Z,25.23
2018-04-19T17:41:51.546Z,25.22
2018-04-19T17:44:18.463Z,25.14
2018-04-19T17:46:45.380Z,25.09
2018-04-19T17:49:12.356Z,25.05
2018-04-19T17:51:39.277Z,24.91
2018-04-19T17:54:06.279Z,24.79
2018-04-19T17:56:33.205Z,24.59
2018-04-19T17:59:01.064Z,24.43
2018-04-19T18:01:28.735Z,24.40
2018-04-19T18:03:56.342Z,24.34
2018-04-19T18:06:23.313Z,24.26
2018-04-19T18:08:51.813Z,24.15
2018-04-19T18:11:18.806Z,24.06
2018-04-19T18:13:45.679Z,24.00
2018-04-19T18:16:12.677Z,23.98
2018-04-19T18:18:40.384Z,23.93
2018-04-19T18:21:07.297Z,23.86
2018-04-19T18:23:34.900Z,23.79
2018-04-19T18:26:01.809Z,23.75
2018-04-19T18:28:28.857Z,23.72
2018-04-19T18:30:56.518Z,23.61
2018-04-19T18:33:23.439Z,23.58
2018-04-19T18:35:52.864Z,23.50
2018-04-19T18:38:20.471Z,23.36
2018-04-19T18:40:47.390Z,23.17
2018-04-19T18:43:14.531Z,22.98
2018-04-19T18:45:41.571Z,22.91
2018-04-19T18:48:08.526Z,22.69
2018-04-19T18:50:35.427Z,22.42
2018-04-19T18:53:02.293Z,22.36
2018-04-19T18:55:30.390Z,22.26
2018-04-19T18:57:58.124Z,22.11
2018-04-19T19:00:25.137Z,22.00
2018-04-19T19:02:52.193Z,21.88
2018-04-19T19:05:19.215Z,21.75
2018-04-19T19:07:46.081Z,21.75
2018-04-19T19:10:12.971Z,21.72
2018-04-19T19:12:40.612Z,21.56
2018-04-19T19:19:03.764Z,21.48
2018-04-19T19:21:30.835Z,21.39
2018-04-19T19:23:57.884Z,21.40
2018-04-19T19:26:24.769Z,21.32
2018-04-19T19:28:52.424Z,21.26
2018-04-19T19:31:20.093Z,21.20
2018-04-19T19:33:47.707Z,21.14
2018-04-19T19:36:14.668Z,21.15
2018-04-19T19:38:41.641Z,21.07
2018-04-19T19:41:09.253Z,21.03
2018-04-19T19:43:36.129Z,21.03
2018-04-19T19:46:03.059Z,21.05
2018-04-19T19:48:29.987Z,21.00
2018-04-19T19:50:57.658Z,20.95
2018-04-19T19:53:24.583Z,20.88
2018-04-19T19:55:51.440Z,20.77
2018-04-19T19:58:18.421Z,20.64
2018-04-19T20:00:45.328Z,20.49
2018-04-19T20:03:12.197Z,20.40
2018-04-19T20:05:39.136Z,20.29
2018-04-19T20:08:06.069Z,20.21
2018-04-19T20:10:32.935Z,20.17
2018-04-19T20:12:59.849Z,20.12
2018-04-19T20:15:26.716Z,20.06
2018-04-19T20:17:53.625Z,19.98
2018-04-19T20:20:20.492Z,19.93
2018-04-19T20:22:47.355Z,19.90
2018-04-19T20:25:14.269Z,19.90
2018-04-19T20:27:41.200Z,19.92
2018-04-19T20:30:08.870Z,19.85
2018-04-19T20:32:35.791Z,19.78
2018-04-19T20:35:02.865Z,19.71
2018-04-19T20:37:29.779Z,19.70
2018-04-19T20:39:56.700Z,19.63
2018-04-19T20:42:23.617Z,19.63
2018-04-19T20:44:50.477Z,19.64
2018-04-19T20:47:17.400Z,19.66
2018-04-19T20:49:44.262Z,19.59
2018-04-19T20:52:11.171Z,19.57
2018-04-19T20:54:38.789Z,19.55
2018-04-19T20:57:06.026Z,19.55
2018-04-19T20:59:32.890Z,19.53
2018-04-19T21:01:59.757Z,19.53
2018-04-19T21:04:26.725Z,19.50
2018-04-19T21:06:54.371Z,19.43
2018-04-19T21:09:21.449Z,19.36
2018-04-19T21:11:48.314Z,19.32
2018-04-19T21:14:15.171Z,19.29
2018-04-19T21:16:42.169Z,19.22
2018-04-19T21:19:09.776Z,19.18
2018-04-19T21:21:36.756Z,18.99
2018-04-19T21:24:03.694Z,18.89
2018-04-19T21:26:30.613Z,18.75
2018-04-19T21:28:57.584Z,18.66
2018-04-19T21:31:24.451Z,18.60
2018-04-19T21:33:51.370Z,18.53
2018-04-19T21:36:19.126Z,18.43
2018-04-19T21:38:46.000Z,18.39
2018-04-19T21:41:12.924Z,18.43
2018-04-19T21:43:39.851Z,18.44
2018-04-19T21:46:06.767Z,18.34
2018-04-19T21:48:33.645Z,18.33
2018-04-19T21:51:01.427Z,18.30
2018-04-19T21:53:28.314Z,18.26
2018-04-19T21:55:56.260Z,18.20
2018-04-19T21:58:23.453Z,18.16
2018-04-19T22:00:50.525Z,18.09
2018-04-19T22:03:17.457Z,18.13
2018-04-19T22:05:44.723Z,18.12
2018-04-19T22:08:11.701Z,18.13
2018-04-19T22:10:38.559Z,18.06
2018-04-19T22:13:05.562Z,18.01
2018-04-19T22:15:32.533Z,17.91
2018-04-19T22:17:59.502Z,17.92
2018-04-19T22:20:26.428Z,17.88
2018-04-19T22:22:53.291Z,17.82
2018-04-19T22:25:20.256Z,17.78
2018-04-19T22:27:47.862Z,17.69
2018-04-19T22:30:15.013Z,17.63
2018-04-19T22:32:41.880Z,17.56
2018-04-19T22:35:08.744Z,17.55
2018-04-19T22:37:36.236Z,17.51
2018-04-19T22:40:03.309Z,17.52
2018-04-19T22:42:30.256Z,17.48
2018-04-19T22:44:57.170Z,17.47
2018-04-19T22:47:24.044Z,17.47
2018-04-19T22:49:51.008Z,17.40
2018-04-19T22:52:17.886Z,17.34
2018-04-19T22:54:44.805Z,17.26
2018-04-19T22:57:11.716Z,17.26
2018-04-19T22:59:43.616Z,17.27
2018-04-19T23:02:10.549Z,17.24
2018-04-19T23:04:38.208Z,17.21
2018-04-19T23:07:05.103Z,17.22
2018-04-19T23:09:32.724Z,17.19
2018-04-19T23:11:59.883Z,17.12
2018-04-19T23:14:26.777Z,17.04
2018-04-19T23:16:53.709Z,17.05
2018-04-19T23:19:21.368Z,17.10
2018-04-19T23:21:49.016Z,17.08
2018-04-19T23:24:15.901Z,17.01
2018-04-19T23:26:42.966Z,16.97
2018-04-19T23:29:09.854Z,16.92
2018-04-19T23:31:36.799Z,16.84
2018-04-19T23:34:03.763Z,16.77
2018-04-19T23:36:31.399Z,16.72
2018-04-19T23:38:58.402Z,16.65
2018-04-19T23:41:25.340Z,16.65
2018-04-19T23:43:52.285Z,16.66
2018-04-19T23:46:19.187Z,16.66
2018-04-19T23:48:46.181Z,16.64
2018-04-19T23:51:13.139Z,16.63
2018-04-19T23:53:40.061Z,16.63
2018-04-19T23:56:06.966Z,16.62
2018-04-19T23:58:34.012Z,16.58
